sensor_id;sensor_type;location;lat;lon;timestamp;pressure;altitude;pressure_sealevel;temperature;humidity
25855;BME280;13680;49.936;11.344;2023-08-01T00:01:24;95722.56;;;18.85;83.72
25855;BME280;13680;49.936;11.344;2023-08-01T00:03:50;95716.69;;;18.83;83.30
25855;BME280;13680;49.936;11.344;2023-08-01T00:06:15;95715.53;;;18.84;83.77
25855;BME280;13680;49.936;11.344;2023-08-01T00:08:41;95711.97;;;18.72;83.14
25855;BME280;13680;49.936;11.344;2023-08-01T00:11:06;95711.16;;;18.68;84.24
25855;BME280;13680;49.936;11.344;2023-08-01T00:13:32;95693.28;;;18.71;84.38
25855;BME280;13680;49.936;11.344;2023-08-01T00:15:57;95698.69;;;18.63;85.44
25855;BME280;13680;49.936;11.344;2023-08-01T00:18:22;95699.84;;;18.66;85.65
25855;BME280;13680;49.936;11.344;2023-08-01T00:20:48;95699.03;;;18.58;86.25
25855;BME280;13680;49.936;11.344;2023-08-01T00:23:13;95703.38;;;18.70;85.86
25855;BME280;13680;49.936;11.344;2023-08-01T00:25:38;95701.88;;;18.76;85.48
25855;BME280;13680;49.936;11.344;2023-08-01T00:28:04;95692.50;;;18.70;85.38
25855;BME280;13680;49.936;11.344;2023-08-01T00:30:29;95690.59;;;18.74;84.53
25855;BME280;13680;49.936;11.344;2023-08-01T00:32:54;95687.47;;;18.72;84.81
25855;BME280;13680;49.936;11.344;2023-08-01T00:35:20;95688.63;;;18.71;85.60
25855;BME280;13680;49.936;11.344;2023-08-01T00:37:46;95686.25;;;18.66;85.07
25855;BME280;13680;49.936;11.344;2023-08-01T00:40:11;95670.69;;;18.70;85.82
25855;BME280;13680;49.936;11.344;2023-08-01T00:42:37;95664.47;;;18.66;86.70
25855;BME280;13680;49.936;11.344;2023-08-01T00:45:04;95661.41;;;18.75;85.77
25855;BME280;13680;49.936;11.344;2023-08-01T00:47:29;95659.84;;;18.74;85.73
25855;BME280;13680;49.936;11.344;2023-08-01T00:49:55;95659.00;;;18.66;85.55
25855;BME280;13680;49.936;11.344;2023-08-01T00:52:20;95655.84;;;18.57;86.15
25855;BME280;13680;49.936;11.344;2023-08-01T00:54:46;95655.09;;;18.56;86.62
25855;BME280;13680;49.936;11.344;2023-08-01T00:57:12;95656.97;;;18.52;87.48
25855;BME280;13680;49.936;11.344;2023-08-01T00:59:37;95654.69;;;18.58;86.59
25855;BME280;13680;49.936;11.344;2023-08-01T01:02:02;95643.38;;;18.52;86.64
25855;BME280;13680;49.936;11.344;2023-08-01T01:04:28;95641.06;;;18.54;87.32
25855;BME280;13680;49.936;11.344;2023-08-01T01:07:00;95633.25;;;18.49;87.16
25855;BME280;13680;49.936;11.344;2023-08-01T01:09:29;95634.44;;;18.52;87.23
25855;BME280;13680;49.936;11.344;2023-08-01T01:11:54;95627.81;;;18.53;87.12
25855;BME280;13680;49.936;11.344;2023-08-01T01:14:20;95626.88;;;18.27;88.38
25855;BME280;13680;49.936;11.344;2023-08-01T01:16:45;95618.31;;;18.25;89.37
25855;BME280;13680;49.936;11.344;2023-08-01T01:19:10;95614.88;;;18.35;89.60
25855;BME280;13680;49.936;11.344;2023-08-01T01:21:37;95611.38;;;18.38;88.64
25855;BME280;13680;49.936;11.344;2023-08-01T01:24:05;95604.41;;;18.41;89.58
25855;BME280;13680;49.936;11.344;2023-08-01T01:26:32;95595.09;;;18.42;89.26
25855;BME280;13680;49.936;11.344;2023-08-01T01:28:59;95592.00;;;18.47;88.88
25855;BME280;13680;49.936;11.344;2023-08-01T01:31:25;95588.91;;;18.48;88.78
25855;BME280;13680;49.936;11.344;2023-08-01T01:33:51;95583.44;;;18.45;89.20
25855;BME280;13680;49.936;11.344;2023-08-01T01:36:17;95583.44;;;18.45;89.32
25855;BME280;13680;49.936;11.344;2023-08-01T01:38:42;95575.78;;;18.61;89.04
25855;BME280;13680;49.936;11.344;2023-08-01T01:41:07;95568.75;;;18.60;88.43
25855;BME280;13680;49.936;11.344;2023-08-01T01:43:33;95564.06;;;18.54;88.50
25855;BME280;13680;49.936;11.344;2023-08-01T01:45:58;95562.03;;;18.43;88.89
25855;BME280;13680;49.936;11.344;2023-08-01T01:48:23;95551.56;;;18.45;90.15
25855;BME280;13680;49.936;11.344;2023-08-01T01:50:49;95561.72;;;18.56;90.00
25855;BME280;13680;49.936;11.344;2023-08-01T01:53:14;95547.72;;;18.54;89.44
25855;BME280;13680;49.936;11.344;2023-08-01T01:55:39;95536.03;;;18.53;89.43
25855;BME280;13680;49.936;11.344;2023-08-01T01:58:05;95527.50;;;18.51;89.78
25855;BME280;13680;49.936;11.344;2023-08-01T02:00:31;95534.88;;;18.54;90.02
25855;BME280;13680;49.936;11.344;2023-08-01T02:02:56;95521.66;;;18.53;89.62
25855;BME280;13680;49.936;11.344;2023-08-01T02:05:22;95521.94;;;18.33;90.37
25855;BME280;13680;49.936;11.344;2023-08-01T02:07:47;95516.97;;;18.49;89.33
25855;BME280;13680;49.936;11.344;2023-08-01T02:10:12;95516.94;;;18.42;89.56
25855;BME280;13680;49.936;11.344;2023-08-01T02:12:37;95511.88;;;18.44;90.25
25855;BME280;13680;49.936;11.344;2023-08-01T02:15:03;95514.59;;;18.44;89.32
25855;BME280;13680;49.936;11.344;2023-08-01T02:17:28;95508.00;;;18.42;88.99
25855;BME280;13680;49.936;11.344;2023-08-01T02:19:54;95507.56;;;18.32;89.40
25855;BME280;13680;49.936;11.344;2023-08-01T02:22:19;95501.38;;;18.39;90.39
25855;BME280;13680;49.936;11.344;2023-08-01T02:24:44;95492.03;;;18.40;90.44
25855;BME280;13680;49.936;11.344;2023-08-01T02:27:10;95481.19;;;18.47;90.28
25855;BME280;13680;49.936;11.344;2023-08-01T02:29:35;95488.59;;;18.51;90.03
25855;BME280;13680;49.936;11.344;2023-08-01T02:32:00;95480.06;;;18.56;89.60
25855;BME280;13680;49.936;11.344;2023-08-01T02:34:26;95472.28;;;18.58;89.90
25855;BME280;13680;49.936;11.344;2023-08-01T02:36:52;95472.66;;;18.53;89.45
25855;BME280;13680;49.936;11.344;2023-08-01T02:39:18;95460.59;;;18.46;89.87
25855;BME280;13680;49.936;11.344;2023-08-01T02:41:43;95463.59;;;18.30;91.29
25855;BME280;13680;49.936;11.344;2023-08-01T02:44:09;95455.44;;;18.27;91.51
25855;BME280;13680;49.936;11.344;2023-08-01T02:46:34;95458.97;;;18.31;92.19
25855;BME280;13680;49.936;11.344;2023-08-01T02:48:59;95441.06;;;18.30;92.09
25855;BME280;13680;49.936;11.344;2023-08-01T02:51:24;95437.81;;;17.99;94.37
25855;BME280;13680;49.936;11.344;2023-08-01T02:53:50;95434.81;;;18.22;92.95
25855;BME280;13680;49.936;11.344;2023-08-01T02:56:15;95440.19;;;18.11;93.46
25855;BME280;13680;49.936;11.344;2023-08-01T02:58:41;95439.88;;;18.24;93.09
25855;BME280;13680;49.936;11.344;2023-08-01T03:01:08;95437.97;;;18.35;91.77
25855;BME280;13680;49.936;11.344;2023-08-01T03:03:35;95447.28;;;18.27;91.76
25855;BME280;13680;49.936;11.344;2023-08-01T03:06:01;95437.47;;;18.11;93.12
25855;BME280;13680;49.936;11.344;2023-08-01T03:08:27;95446.44;;;18.12;92.85
25855;BME280;13680;49.936;11.344;2023-08-01T03:10:53;95433.97;;;18.07;94.01
25855;BME280;13680;49.936;11.344;2023-08-01T03:13:19;95441.00;;;18.12;92.23
25855;BME280;13680;49.936;11.344;2023-08-01T03:15:44;95441.75;;;18.12;92.95
25855;BME280;13680;49.936;11.344;2023-08-01T03:18:09;95444.91;;;18.22;92.82
25855;BME280;13680;49.936;11.344;2023-08-01T03:20:35;95435.25;;;18.31;92.07
25855;BME280;13680;49.936;11.344;2023-08-01T03:23:00;95436.03;;;18.36;91.91
25855;BME280;13680;49.936;11.344;2023-08-01T03:25:25;95436.03;;;18.36;91.98
25855;BME280;13680;49.936;11.344;2023-08-01T03:27:51;95441.13;;;18.44;91.82
25855;BME280;13680;49.936;11.344;2023-08-01T03:30:16;95423.22;;;18.43;91.94
25855;BME280;13680;49.936;11.344;2023-08-01T03:32:41;95428.63;;;18.29;92.47
25855;BME280;13680;49.936;11.344;2023-08-01T03:35:07;95421.69;;;18.42;91.33
25855;BME280;13680;49.936;11.344;2023-08-01T03:37:32;95413.50;;;18.39;90.92
25855;BME280;13680;49.936;11.344;2023-08-01T03:39:58;95407.72;;;18.47;90.85
25855;BME280;13680;49.936;11.344;2023-08-01T03:42:23;95412.34;;;18.43;91.59
25855;BME280;13680;49.936;11.344;2023-08-01T03:44:48;95408.47;;;18.44;91.24
25855;BME280;13680;49.936;11.344;2023-08-01T03:47:14;95405.38;;;18.42;92.07
25855;BME280;13680;49.936;11.344;2023-08-01T03:49:39;95402.63;;;18.42;92.61
25855;BME280;13680;49.936;11.344;2023-08-01T03:52:05;95401.72;;;18.09;93.88
25855;BME280;13680;49.936;11.344;2023-08-01T03:54:31;95408.84;;;18.43;91.75
25855;BME280;13680;49.936;11.344;2023-08-01T03:56:56;95397.94;;;18.39;91.82
25855;BME280;13680;49.936;11.344;2023-08-01T03:59:22;95391.38;;;18.44;91.65
25855;BME280;13680;49.936;11.344;2023-08-01T04:01:47;95379.59;;;18.14;92.37
25855;BME280;13680;49.936;11.344;2023-08-01T04:04:12;95376.84;;;18.11;93.73
25855;BME280;13680;49.936;11.344;2023-08-01T04:06:38;95370.72;;;18.32;92.41
25855;BME280;13680;49.936;11.344;2023-08-01T04:09:03;95354.81;;;18.41;91.68
25855;BME280;13680;49.936;11.344;2023-08-01T04:11:28;95369.19;;;18.45;91.88
25855;BME280;13680;49.936;11.344;2023-08-01T04:13:55;95365.31;;;18.46;91.75
25855;BME280;13680;49.936;11.344;2023-08-01T04:16:21;95376.22;;;18.54;90.73
25855;BME280;13680;49.936;11.344;2023-08-01T04:18:47;95364.16;;;18.47;90.79
25855;BME280;13680;49.936;11.344;2023-08-01T04:21:13;95356.34;;;18.35;92.12
25855;BME280;13680;49.936;11.344;2023-08-01T04:23:40;95347.84;;;18.47;91.54
25855;BME280;13680;49.936;11.344;2023-08-01T04:26:05;95352.50;;;18.51;91.15
25855;BME280;13680;49.936;11.344;2023-08-01T04:28:32;95354.78;;;18.38;91.13
25855;BME280;13680;49.936;11.344;2023-08-01T04:30:57;95347.41;;;18.38;92.24
25855;BME280;13680;49.936;11.344;2023-08-01T04:33:22;95339.22;;;18.38;92.51
25855;BME280;13680;49.936;11.344;2023-08-01T04:35:48;95349.34;;;18.34;91.88
25855;BME280;13680;49.936;11.344;2023-08-01T04:38:14;95331.47;;;18.40;92.21
25855;BME280;13680;49.936;11.344;2023-08-01T04:40:40;95336.13;;;18.43;92.24
25855;BME280;13680;49.936;11.344;2023-08-01T04:43:05;95325.19;;;18.22;93.93
25855;BME280;13680;49.936;11.344;2023-08-01T04:45:31;95324.88;;;18.41;92.75
25855;BME280;13680;49.936;11.344;2023-08-01T04:47:56;95333.03;;;18.41;92.98
25855;BME280;13680;49.936;11.344;2023-08-01T04:50:21;95331.47;;;18.37;94.06
25855;BME280;13680;49.936;11.344;2023-08-01T04:52:46;95329.91;;;18.28;93.50
25855;BME280;13680;49.936;11.344;2023-08-01T04:55:12;95334.59;;;18.53;92.52
25855;BME280;13680;49.936;11.344;2023-08-01T04:57:37;95334.22;;;18.55;91.88
25855;BME280;13680;49.936;11.344;2023-08-01T05:00:04;95343.94;;;18.41;92.30
25855;BME280;13680;49.936;11.344;2023-08-01T05:02:29;95335.78;;;18.45;92.88
25855;BME280;13680;49.936;11.344;2023-08-01T05:04:55;95332.28;;;18.48;92.33
25855;BME280;13680;49.936;11.344;2023-08-01T05:07:20;95339.28;;;18.53;93.09
25855;BME280;13680;49.936;11.344;2023-08-01T05:09:45;95342.78;;;18.68;90.60
25855;BME280;13680;49.936;11.344;2023-08-01T05:12:11;95336.53;;;18.45;92.48
25855;BME280;13680;49.936;11.344;2023-08-01T05:14:36;95343.94;;;18.56;92.41
25855;BME280;13680;49.936;11.344;2023-08-01T05:17:02;95343.19;;;18.66;91.70
25855;BME280;13680;49.936;11.344;2023-08-01T05:19:27;95347.06;;;18.69;91.34
25855;BME280;13680;49.936;11.344;2023-08-01T05:21:52;95350.94;;;18.57;91.69
25855;BME280;13680;49.936;11.344;2023-08-01T05:24:18;95340.09;;;18.64;91.47
25855;BME280;13680;49.936;11.344;2023-08-01T05:26:43;95342.41;;;18.62;90.57
25855;BME280;13680;49.936;11.344;2023-08-01T05:29:08;95344.19;;;18.07;94.41
25855;BME280;13680;49.936;11.344;2023-08-01T05:31:34;95347.78;;;18.37;93.07
25855;BME280;13680;49.936;11.344;2023-08-01T05:33:59;95333.75;;;18.24;95.19
25855;BME280;13680;49.936;11.344;2023-08-01T05:36:24;95336.16;;;18.51;94.41
25855;BME280;13680;49.936;11.344;2023-08-01T05:38:50;95342.75;;;18.49;92.89
25855;BME280;13680;49.936;11.344;2023-08-01T05:41:15;95348.63;;;18.59;91.80
25855;BME280;13680;49.936;11.344;2023-08-01T05:43:40;95341.22;;;18.48;92.59
25855;BME280;13680;49.936;11.344;2023-08-01T05:46:06;95342.00;;;18.53;93.22
25855;BME280;13680;49.936;11.344;2023-08-01T05:48:31;95350.31;;;17.90;97.21
25855;BME280;13680;49.936;11.344;2023-08-01T05:50:56;95349.25;;;18.09;96.19
25855;BME280;13680;49.936;11.344;2023-08-01T05:53:23;95354.34;;;18.18;96.91
25855;BME280;13680;49.936;11.344;2023-08-01T05:55:48;95352.88;;;18.49;94.24
25855;BME280;13680;49.936;11.344;2023-08-01T05:58:14;95349.75;;;18.43;94.09
25855;BME280;13680;49.936;11.344;2023-08-01T06:00:39;95357.91;;;18.43;93.90
25855;BME280;13680;49.936;11.344;2023-08-01T06:03:04;95354.00;;;18.30;94.65
25855;BME280;13680;49.936;11.344;2023-08-01T06:05:30;95352.13;;;18.59;92.71
25855;BME280;13680;49.936;11.344;2023-08-01T06:07:55;95360.28;;;18.45;93.01
25855;BME280;13680;49.936;11.344;2023-08-01T06:10:22;95361.00;;;18.38;94.45
25855;BME280;13680;49.936;11.344;2023-08-01T06:12:47;95346.66;;;18.56;93.19
25855;BME280;13680;49.936;11.344;2023-08-01T06:15:12;95352.78;;;18.16;94.62
25855;BME280;13680;49.936;11.344;2023-08-01T06:17:38;95349.00;;;18.54;93.78
25855;BME280;13680;49.936;11.344;2023-08-01T06:20:03;95346.28;;;18.61;93.10
25855;BME280;13680;49.936;11.344;2023-08-01T06:22:30;95352.13;;;18.63;93.44
25855;BME280;13680;49.936;11.344;2023-08-01T06:24:55;95349.81;;;18.69;92.30
25855;BME280;13680;49.936;11.344;2023-08-01T06:27:21;95355.25;;;18.72;91.73
25855;BME280;13680;49.936;11.344;2023-08-01T06:29:46;95361.09;;;18.74;91.73
25855;BME280;13680;49.936;11.344;2023-08-01T06:32:12;95357.91;;;18.47;93.40
25855;BME280;13680;49.936;11.344;2023-08-01T06:34:37;95358.72;;;18.55;93.39
25855;BME280;13680;49.936;11.344;2023-08-01T06:37:02;95356.03;;;18.73;93.45
25855;BME280;13680;49.936;11.344;2023-08-01T06:39:29;95361.88;;;18.75;92.67
25855;BME280;13680;49.936;11.344;2023-08-01T06:41:55;95360.31;;;18.74;92.18
25855;BME280;13680;49.936;11.344;2023-08-01T06:44:20;95366.16;;;18.87;91.87
25855;BME280;13680;49.936;11.344;2023-08-01T06:46:45;95368.94;;;18.94;90.94
25855;BME280;13680;49.936;11.344;2023-08-01T06:49:11;95372.78;;;18.89;91.75
25855;BME280;13680;49.936;11.344;2023-08-01T06:51:36;95364.59;;;18.64;92.02
25855;BME280;13680;49.936;11.344;2023-08-01T06:54:02;95371.25;;;18.92;89.88
25855;BME280;13680;49.936;11.344;2023-08-01T06:56:27;95365.34;;;18.50;92.33
25855;BME280;13680;49.936;11.344;2023-08-01T06:58:52;95373.06;;;18.41;93.62
25855;BME280;13680;49.936;11.344;2023-08-01T07:01:18;95370.34;;;18.44;92.42
25855;BME280;13680;49.936;11.344;2023-08-01T07:03:44;95364.16;;;18.58;92.05
25855;BME280;13680;49.936;11.344;2023-08-01T07:06:10;95366.50;;;18.63;93.16
25855;BME280;13680;49.936;11.344;2023-08-01T07:08:35;95368.09;;;18.75;92.51
25855;BME280;13680;49.936;11.344;2023-08-01T07:11:01;95353.28;;;18.62;92.61
25855;BME280;13680;49.936;11.344;2023-08-01T07:13:28;95366.88;;;18.47;93.61
25855;BME280;13680;49.936;11.344;2023-08-01T07:15:53;95355.19;;;18.47;93.12
25855;BME280;13680;49.936;11.344;2023-08-01T07:18:18;95353.31;;;18.65;92.69
25855;BME280;13680;49.936;11.344;2023-08-01T07:20:44;95367.59;;;18.30;94.71
25855;BME280;13680;49.936;11.344;2023-08-01T07:23:09;95353.28;;;18.47;92.35
25855;BME280;13680;49.936;11.344;2023-08-01T07:25:35;95348.19;;;18.46;92.50
25855;BME280;13680;49.936;11.344;2023-08-01T07:28:01;95354.13;;;18.80;90.96
25855;BME280;13680;49.936;11.344;2023-08-01T07:30:27;95346.31;;;18.83;90.56
25855;BME280;13680;49.936;11.344;2023-08-01T07:32:52;95355.25;;;18.87;89.62
25855;BME280;13680;49.936;11.344;2023-08-01T07:35:17;95354.91;;;19.03;89.46
25855;BME280;13680;49.936;11.344;2023-08-01T07:37:43;95354.94;;;19.06;88.21
25855;BME280;13680;49.936;11.344;2023-08-01T07:40:09;95352.97;;;19.07;89.66
25855;BME280;13680;49.936;11.344;2023-08-01T07:42:35;95354.09;;;18.84;89.32
25855;BME280;13680;49.936;11.344;2023-08-01T07:45:00;95354.84;;;18.70;88.54
25855;BME280;13680;49.936;11.344;2023-08-01T07:47:26;95352.53;;;18.79;89.04
25855;BME280;13680;49.936;11.344;2023-08-01T07:49:52;95358.81;;;18.91;88.43
25855;BME280;13680;49.936;11.344;2023-08-01T07:52:18;95361.94;;;19.04;88.16
25855;BME280;13680;49.936;11.344;2023-08-01T07:54:43;95365.03;;;19.09;87.94
25855;BME280;13680;49.936;11.344;2023-08-01T07:57:08;95364.25;;;19.27;87.14
25855;BME280;13680;49.936;11.344;2023-08-01T07:59:34;95367.75;;;19.09;86.20
25855;BME280;13680;49.936;11.344;2023-08-01T08:01:59;95370.09;;;19.11;86.01
25855;BME280;13680;49.936;11.344;2023-08-01T08:04:25;95364.97;;;18.59;88.83
25855;BME280;13680;49.936;11.344;2023-08-01T08:06:50;95365.78;;;18.85;88.52
25855;BME280;13680;49.936;11.344;2023-08-01T08:09:17;95356.81;;;18.77;89.13
25855;BME280;13680;49.936;11.344;2023-08-01T08:11:42;95346.75;;;18.99;89.34
25855;BME280;13680;49.936;11.344;2023-08-01T08:14:07;95321.06;;;18.93;89.70
25855;BME280;13680;49.936;11.344;2023-08-01T08:16:33;95309.75;;;19.20;88.43
25855;BME280;13680;49.936;11.344;2023-08-01T08:18:58;95296.13;;;19.34;87.75
25855;BME280;13680;49.936;11.344;2023-08-01T08:21:24;95303.09;;;19.39;88.00
25855;BME280;13680;49.936;11.344;2023-08-01T08:23:49;95335.00;;;19.53;87.64
25855;BME280;13680;49.936;11.344;2023-08-01T08:26:14;95339.69;;;19.56;85.80
25855;BME280;13680;49.936;11.344;2023-08-01T08:28:40;95343.59;;;19.51;85.21
25855;BME280;13680;49.936;11.344;2023-08-01T08:31:07;95346.31;;;19.40;85.29
25855;BME280;13680;49.936;11.344;2023-08-01T08:33:32;95333.50;;;19.37;84.65
25855;BME280;13680;49.936;11.344;2023-08-01T08:35:57;95345.56;;;19.25;85.11
25855;BME280;13680;49.936;11.344;2023-08-01T08:38:23;95336.59;;;19.25;85.63
25855;BME280;13680;49.936;11.344;2023-08-01T08:40:58;95341.22;;;18.70;89.21
25855;BME280;13680;49.936;11.344;2023-08-01T08:43:26;95341.31;;;19.06;88.11
25855;BME280;13680;49.936;11.344;2023-08-01T08:45:53;95337.78;;;19.09;87.26
25855;BME280;13680;49.936;11.344;2023-08-01T08:48:21;95336.25;;;19.16;87.27
25855;BME280;13680;49.936;11.344;2023-08-01T08:50:48;95330.00;;;19.01;87.02
25855;BME280;13680;49.936;11.344;2023-08-01T08:53:15;95339.34;;;19.10;86.20
25855;BME280;13680;49.936;11.344;2023-08-01T08:55:40;95339.34;;;19.18;86.02
25855;BME280;13680;49.936;11.344;2023-08-01T08:58:06;95331.94;;;19.11;88.13
25855;BME280;13680;49.936;11.344;2023-08-01T09:00:32;95334.28;;;18.94;88.09
25855;BME280;13680;49.936;11.344;2023-08-01T09:02:58;95326.91;;;19.02;86.04
25855;BME280;13680;49.936;11.344;2023-08-01T09:05:27;95326.50;;;19.00;86.21
25855;BME280;13680;49.936;11.344;2023-08-01T09:07:57;95327.66;;;19.17;85.41
25855;BME280;13680;49.936;11.344;2023-08-01T09:10:25;95333.53;;;19.05;85.40
25855;BME280;13680;49.936;11.344;2023-08-01T09:12:50;95324.16;;;19.06;87.71
25855;BME280;13680;49.936;11.344;2023-08-01T09:15:16;95319.88;;;19.26;86.07
25855;BME280;13680;49.936;11.344;2023-08-01T09:17:52;95326.84;;;18.62;88.80
25855;BME280;13680;49.936;11.344;2023-08-01T09:20:18;95325.34;;;19.16;87.48
25855;BME280;13680;49.936;11.344;2023-08-01T09:22:44;95328.03;;;19.30;88.39
25855;BME280;13680;49.936;11.344;2023-08-01T09:25:10;95310.91;;;19.22;87.21
25855;BME280;13680;49.936;11.344;2023-08-01T09:27:36;95296.03;;;19.59;86.65
25855;BME280;13680;49.936;11.344;2023-08-01T09:30:10;95298.69;;;19.92;86.35
25855;BME280;13680;49.936;11.344;2023-08-01T09:32:36;95301.00;;;19.97;86.14
25855;BME280;13680;49.936;11.344;2023-08-01T09:35:01;95295.50;;;20.08;85.64
25855;BME280;13680;49.936;11.344;2023-08-01T09:37:40;95294.63;;;20.25;84.82
25855;BME280;13680;49.936;11.344;2023-08-01T09:40:07;95281.38;;;20.27;83.50
25855;BME280;13680;49.936;11.344;2023-08-01T09:42:40;95289.34;;;19.78;84.17
25855;BME280;13680;49.936;11.344;2023-08-01T09:45:16;95292.47;;;19.77;84.34
25855;BME280;13680;49.936;11.344;2023-08-01T09:47:43;95283.91;;;19.86;85.45
25855;BME280;13680;49.936;11.344;2023-08-01T09:50:10;95278.50;;;19.68;87.56
25855;BME280;13680;49.936;11.344;2023-08-01T09:52:36;95291.69;;;19.91;85.37
25855;BME280;13680;49.936;11.344;2023-08-01T09:55:02;95294.44;;;19.84;85.87
25855;BME280;13680;49.936;11.344;2023-08-01T09:57:30;95282.75;;;19.87;85.51
25855;BME280;13680;49.936;11.344;2023-08-01T09:59:59;95292.47;;;19.77;85.17
25855;BME280;13680;49.936;11.344;2023-08-01T10:02:25;95278.22;;;19.19;86.22
25855;BME280;13680;49.936;11.344;2023-08-01T10:04:57;95280.88;;;19.58;85.37
25855;BME280;13680;49.936;11.344;2023-08-01T10:07:25;95285.59;;;19.40;85.36
25855;BME280;13680;49.936;11.344;2023-08-01T10:09:53;95282.47;;;19.38;85.74
25855;BME280;13680;49.936;11.344;2023-08-01T10:12:19;95285.25;;;18.80;88.37
25855;BME280;13680;49.936;11.344;2023-08-01T10:14:46;95284.88;;;19.14;88.03
25855;BME280;13680;49.936;11.344;2023-08-01T10:17:12;95298.09;;;19.19;86.56
25855;BME280;13680;49.936;11.344;2023-08-01T10:19:39;95296.53;;;19.29;86.61
25855;BME280;13680;49.936;11.344;2023-08-01T10:22:06;95294.94;;;19.39;86.26
25855;BME280;13680;49.936;11.344;2023-08-01T10:24:32;95284.06;;;19.24;87.46
25855;BME280;13680;49.936;11.344;2023-08-01T10:27:11;95288.75;;;19.24;87.39
25855;BME280;13680;49.936;11.344;2023-08-01T10:29:36;95284.81;;;19.39;86.33
25855;BME280;13680;49.936;11.344;2023-08-01T10:32:02;95287.09;;;19.55;86.68
25855;BME280;13680;49.936;11.344;2023-08-01T10:34:27;95289.06;;;19.55;85.16
25855;BME280;13680;49.936;11.344;2023-08-01T10:36:54;95279.59;;;19.92;84.41
25855;BME280;13680;49.936;11.344;2023-08-01T10:39:24;95291.34;;;19.67;82.60
25855;BME280;13680;49.936;11.344;2023-08-01T10:42:00;95288.25;;;19.65;83.66
25855;BME280;13680;49.936;11.344;2023-08-01T10:44:26;95290.16;;;19.83;83.50
25855;BME280;13680;49.936;11.344;2023-08-01T10:49:21;95291.84;;;19.29;84.75
25855;BME280;13680;49.936;11.344;2023-08-01T10:51:57;95296.09;;;19.38;85.64
25855;BME280;13680;49.936;11.344;2023-08-01T10:54:24;95294.97;;;19.21;87.01
25855;BME280;13680;49.936;11.344;2023-08-01T10:56:51;95304.34;;;19.12;85.94
25855;BME280;13680;49.936;11.344;2023-08-01T10:59:17;95301.59;;;19.23;86.28
25855;BME280;13680;49.936;11.344;2023-08-01T11:01:47;95300.03;;;19.22;86.24
25855;BME280;13680;49.936;11.344;2023-08-01T11:04:17;95294.19;;;19.20;87.29
25855;BME280;13680;49.936;11.344;2023-08-01T11:06:44;95285.63;;;19.22;87.13
25855;BME280;13680;49.936;11.344;2023-08-01T11:09:21;95301.56;;;19.34;86.91
25855;BME280;13680;49.936;11.344;2023-08-01T11:11:49;95336.63;;;19.21;85.74
25855;BME280;13680;49.936;11.344;2023-08-01T11:14:15;95339.72;;;19.23;85.01
25855;BME280;13680;49.936;11.344;2023-08-01T11:16:43;95362.22;;;18.48;87.80
25855;BME280;13680;49.936;11.344;2023-08-01T11:19:17;95335.44;;;18.72;87.26
25855;BME280;13680;49.936;11.344;2023-08-01T11:21:43;95340.53;;;18.95;84.29
25855;BME280;13680;49.936;11.344;2023-08-01T11:24:09;95338.28;;;17.91;77.25
25855;BME280;13680;49.936;11.344;2023-08-01T11:26:34;95353.22;;;18.26;77.41
25855;BME280;13680;49.936;11.344;2023-08-01T11:29:02;95355.53;;;18.24;76.42
25855;BME280;13680;49.936;11.344;2023-08-01T11:31:30;95346.25;;;18.46;76.90
25855;BME280;13680;49.936;11.344;2023-08-01T11:33:59;95343.97;;;18.67;76.23
25855;BME280;13680;49.936;11.344;2023-08-01T11:36:26;95341.66;;;18.83;74.10
25855;BME280;13680;49.936;11.344;2023-08-01T11:38:52;95340.13;;;19.25;73.07
25855;BME280;13680;49.936;11.344;2023-08-01T11:41:18;95344.00;;;19.35;73.76
25855;BME280;13680;49.936;11.344;2023-08-01T11:43:44;95344.75;;;19.54;73.63
25855;BME280;13680;49.936;11.344;2023-08-01T11:46:09;95350.56;;;19.59;73.68
25855;BME280;13680;49.936;11.344;2023-08-01T11:48:35;95345.50;;;19.72;72.91
25855;BME280;13680;49.936;11.344;2023-08-01T11:51:01;95342.47;;;19.23;75.40
25855;BME280;13680;49.936;11.344;2023-08-01T11:53:27;95332.66;;;19.62;73.47
25855;BME280;13680;49.936;11.344;2023-08-01T11:55:53;95341.63;;;19.66;75.42
25855;BME280;13680;49.936;11.344;2023-08-01T11:58:31;95327.28;;;20.43;72.17
25855;BME280;13680;49.936;11.344;2023-08-01T12:01:08;95333.75;;;20.75;71.31
25855;BME280;13680;49.936;11.344;2023-08-01T12:03:48;95326.50;;;20.47;71.69
25855;BME280;13680;49.936;11.344;2023-08-01T12:06:15;95329.00;;;21.32;70.38
25855;BME280;13680;49.936;11.344;2023-08-01T12:08:45;95328.59;;;21.75;67.42
25855;BME280;13680;49.936;11.344;2023-08-01T12:11:37;95338.34;;;22.11;66.87
25855;BME280;13680;49.936;11.344;2023-08-01T12:14:10;95344.88;;;21.48;69.34
25855;BME280;13680;49.936;11.344;2023-08-01T12:16:36;95346.34;;;21.60;70.81
25855;BME280;13680;49.936;11.344;2023-08-01T12:19:02;95331.84;;;21.66;68.47
25855;BME280;13680;49.936;11.344;2023-08-01T12:21:32;95343.25;;;21.54;68.63
25855;BME280;13680;49.936;11.344;2023-08-01T12:23:58;95340.78;;;21.25;69.66
25855;BME280;13680;49.936;11.344;2023-08-01T12:26:24;95342.56;;;21.46;70.01
25855;BME280;13680;49.936;11.344;2023-08-01T12:28:49;95347.13;;;21.60;69.66
25855;BME280;13680;49.936;11.344;2023-08-01T12:31:16;95354.41;;;20.80;71.96
25855;BME280;13680;49.936;11.344;2023-08-01T12:33:42;95344.41;;;21.11;70.57
25855;BME280;13680;49.936;11.344;2023-08-01T12:36:08;95352.59;;;21.60;68.22
25855;BME280;13680;49.936;11.344;2023-08-01T12:38:33;95338.50;;;21.62;67.34
25855;BME280;13680;49.936;11.344;2023-08-01T12:40:58;95344.75;;;21.62;67.67
25855;BME280;13680;49.936;11.344;2023-08-01T12:43:23;95342.78;;;21.66;67.61
25855;BME280;13680;49.936;11.344;2023-08-01T12:45:49;95335.00;;;22.61;65.71
25855;BME280;13680;49.936;11.344;2023-08-01T12:48:14;95346.13;;;21.39;68.01